createdAt,value
2022-12-03T00:00:02.000Z,1009.045608
2022-12-03T00:00:32.000Z,1009.045608
2022-12-03T00:01:07.000Z,1009.113336
2022-12-03T00:01:37.000Z,1009.113336
2022-12-03T00:02:12.000Z,1009.045608
2022-12-03T00:02:42.000Z,1009.045608
2022-12-03T00:03:06.000Z,1009.113336
2022-12-03T00:03:32.000Z,1009.113336
2022-12-03T00:04:02.000Z,1009.113336
2022-12-03T00:04:32.000Z,1008.944016
2022-12-03T00:05:07.000Z,1009.113336
2022-12-03T00:05:37.000Z,1009.113336
2022-12-03T00:06:02.000Z,1009.113336
2022-12-03T00:06:27.000Z,1009.113336
2022-12-03T00:06:57.000Z,1009.113336
2022-12-03T00:07:32.000Z,1008.842424
2022-12-03T00:08:02.000Z,1008.842424
2022-12-03T00:08:33.000Z,1009.113336
2022-12-03T00:09:07.000Z,1009.113336
2022-12-03T00:09:37.000Z,1009.113336
2022-12-03T00:10:11.000Z,1009.045608
2022-12-03T00:10:39.000Z,1009.045608
2022-12-03T00:11:06.000Z,1008.944016
2022-12-03T00:11:31.000Z,1008.944016
2022-12-03T00:11:59.000Z,1008.944016
2022-12-03T00:12:23.000Z,1009.045608
2022-12-03T00:12:51.000Z,1009.045608
2022-12-03T00:13:16.000Z,1009.045608
2022-12-03T00:13:39.000Z,1009.045608
2022-12-03T00:14:06.000Z,1008.944016
2022-12-03T00:14:29.000Z,1008.944016
2022-12-03T00:14:56.000Z,1008.944016
2022-12-03T00:15:32.000Z,1009.045608
2022-12-03T00:16:02.000Z,1009.045608
2022-12-03T00:16:32.000Z,1008.842424
2022-12-03T00:17:07.000Z,1009.045608
2022-12-03T00:17:37.000Z,1009.045608
2022-12-03T00:18:10.000Z,1008.842424
2022-12-03T00:18:42.000Z,1008.842424
2022-12-03T00:19:04.000Z,1008.842424
2022-12-03T00:19:32.000Z,1008.842424
2022-12-03T00:20:02.000Z,1008.842424
2022-12-03T00:20:32.000Z,1009.113336
2022-12-03T00:21:07.000Z,1008.944016
2022-12-03T00:21:38.000Z,1008.944016
2022-12-03T00:22:02.000Z,1008.944016
2022-12-03T00:22:28.000Z,1008.944016
2022-12-03T00:22:56.000Z,1008.944016
2022-12-03T00:23:32.000Z,1008.944016
2022-12-03T00:24:11.000Z,1009.045608
2022-12-03T00:24:32.000Z,1009.045608
2022-12-03T00:25:07.000Z,1009.045608
2022-12-03T00:25:37.000Z,1009.045608
2022-12-03T00:26:02.000Z,1008.842424
2022-12-03T00:26:27.000Z,1008.842424
2022-12-03T00:26:57.000Z,1008.842424
2022-12-03T00:27:32.000Z,1009.045608
2022-12-03T00:28:02.000Z,1009.045608
2022-12-03T00:28:32.000Z,1009.045608
2022-12-03T00:28:52.000Z,1009.045608
2022-12-03T00:29:21.000Z,1009.045608
2022-12-03T00:29:52.000Z,1009.045608
2022-12-03T00:30:27.000Z,1009.113336
2022-12-03T00:30:58.000Z,1009.113336
2022-12-03T00:31:32.000Z,1009.045608
2022-12-03T00:32:12.000Z,1008.944016
2022-12-03T00:32:34.000Z,1008.944016
2022-12-03T00:33:02.000Z,1009.045608
2022-12-03T00:33:32.000Z,1009.045608
2022-12-03T00:34:02.000Z,1009.045608
2022-12-03T00:34:28.000Z,1008.944016
2022-12-03T00:34:55.000Z,1008.944016
2022-12-03T00:35:32.000Z,1008.842424
2022-12-03T00:36:03.000Z,1008.842424
2022-12-03T00:36:32.000Z,1008.842424
2022-12-03T00:36:52.000Z,1008.842424
2022-12-03T00:37:22.000Z,1008.944016
2022-12-03T00:37:52.000Z,1008.944016
2022-12-03T00:38:12.000Z,1008.842424
2022-12-03T00:38:42.000Z,1008.842424
2022-12-03T00:39:03.000Z,1008.842424
2022-12-03T00:39:32.000Z,1008.842424
2022-12-03T00:40:02.000Z,1008.842424
2022-12-03T00:40:32.000Z,1008.842424
2022-12-03T00:40:52.000Z,1008.842424
2022-12-03T00:41:22.000Z,1008.842424
2022-12-03T00:41:52.000Z,1008.842424
2022-12-03T00:42:27.000Z,1008.944016
2022-12-03T00:42:55.000Z,1008.944016
2022-12-03T00:43:22.000Z,1008.842424
2022-12-03T00:43:48.000Z,1008.842424
2022-12-03T00:44:12.000Z,1008.842424
2022-12-03T00:44:37.000Z,1008.842424
2022-12-03T00:45:07.000Z,1008.842424
2022-12-03T00:45:37.000Z,1008.842424
2022-12-03T00:46:02.000Z,1008.944016
2022-12-03T00:46:27.000Z,1008.944016
2022-12-03T00:46:57.000Z,1008.944016
2022-12-03T00:47:32.000Z,1008.842424
2022-12-03T00:48:02.000Z,1008.842424
2022-12-03T00:48:32.000Z,1008.944016
2022-12-03T00:48:52.000Z,1008.944016
2022-12-03T00:49:22.000Z,1008.842424
2022-12-03T00:49:52.000Z,1008.842424
2022-12-03T00:50:27.000Z,1008.944016
2022-12-03T00:50:58.000Z,1008.944016
2022-12-03T00:51:32.000Z,1009.045608
2022-12-03T00:52:12.000Z,1008.7408320000001
2022-12-03T00:52:32.000Z,1008.7408320000001
2022-12-03T00:53:07.000Z,1008.944016
2022-12-03T00:53:37.000Z,1008.944016
2022-12-03T00:54:10.000Z,1009.045608
2022-12-03T00:54:42.000Z,1009.045608
2022-12-03T00:55:03.000Z,1009.113336
2022-12-03T00:55:32.000Z,1009.113336
2022-12-03T00:56:02.000Z,1009.113336
2022-12-03T00:56:32.000Z,1009.045608
2022-12-03T00:57:07.000Z,1008.842424
2022-12-03T00:57:37.000Z,1008.842424
2022-12-03T00:58:10.000Z,1008.944016
2022-12-03T00:58:43.000Z,1008.944016
2022-12-03T00:59:03.000Z,1008.944016
2022-12-03T00:59:32.000Z,1008.944016
2022-12-03T01:00:12.000Z,1008.7408320000001
2022-12-03T01:00:34.000Z,1008.7408320000001
2022-12-03T01:01:02.000Z,1008.842424
2022-12-03T01:01:32.000Z,1008.842424
2022-12-03T01:01:52.000Z,1008.842424
2022-12-03T01:02:27.000Z,1008.944016
2022-12-03T01:02:57.000Z,1008.944016
2022-12-03T01:03:32.000Z,1008.842424
2022-12-03T01:04:02.000Z,1008.842424
2022-12-03T01:04:32.000Z,1008.842424
2022-12-03T01:05:07.000Z,1008.7408320000001
2022-12-03T01:05:37.000Z,1008.7408320000001
2022-12-03T01:06:10.000Z,1008.944016
2022-12-03T01:06:42.000Z,1008.944016
2022-12-03T01:07:02.000Z,1008.944016
2022-12-03T01:07:32.000Z,1008.944016
2022-12-03T01:08:02.000Z,1008.944016
2022-12-03T01:08:37.000Z,1008.7408320000001
2022-12-03T01:09:17.000Z,1008.944016
2022-12-03T01:09:40.000Z,1008.944016
2022-12-03T01:10:07.000Z,1008.944016
2022-12-03T01:10:29.000Z,1008.944016
2022-12-03T01:10:57.000Z,1008.944016
2022-12-03T01:11:32.000Z,1008.944016
2022-12-03T01:12:12.000Z,1009.113336
2022-12-03T01:12:35.000Z,1009.113336
2022-12-03T01:13:02.000Z,1008.842424
2022-12-03T01:13:32.000Z,1008.842424
2022-12-03T01:13:52.000Z,1008.842424
2022-12-03T01:14:27.000Z,1009.045608
2022-12-03T01:14:57.000Z,1009.045608
2022-12-03T01:15:32.000Z,1008.944016
2022-12-03T01:16:02.000Z,1008.944016
2022-12-03T01:16:32.000Z,1008.944016
2022-12-03T01:17:07.000Z,1009.045608
2022-12-03T01:17:37.000Z,1009.045608
2022-12-03T01:18:10.000Z,1009.045608
2022-12-03T01:18:42.000Z,1009.045608
2022-12-03T01:19:03.000Z,1008.7408320000001
2022-12-03T01:19:32.000Z,1008.7408320000001
2022-12-03T01:20:12.000Z,1008.842424
2022-12-03T01:20:34.000Z,1008.842424
2022-12-03T01:21:02.000Z,1008.842424
2022-12-03T01:21:32.000Z,1008.842424
2022-12-03T01:21:52.000Z,1008.842424
2022-12-03T01:22:27.000Z,1008.842424
2022-12-03T01:22:57.000Z,1008.842424
2022-12-03T01:23:32.000Z,1008.944016
2022-12-03T01:24:02.000Z,1008.944016
2022-12-03T01:24:32.000Z,1008.944016
2022-12-03T01:25:07.000Z,1008.944016
2022-12-03T01:25:37.000Z,1008.944016
2022-12-03T01:26:02.000Z,1009.045608
2022-12-03T01:26:27.000Z,1009.045608
2022-12-03T01:26:57.000Z,1009.045608
2022-12-03T01:27:32.000Z,1009.113336
2022-12-03T01:28:02.000Z,1009.113336
2022-12-03T01:28:33.000Z,1008.7408320000001
2022-12-03T01:29:02.000Z,1008.842424
2022-12-03T01:29:19.000Z,1008.842424
2022-12-03T01:29:37.000Z,1008.842424
2022-12-03T01:30:02.000Z,1009.113336
2022-12-03T01:30:27.000Z,1009.113336
2022-12-03T01:30:57.000Z,1009.113336
2022-12-03T01:31:32.000Z,1009.045608
2022-12-03T01:32:02.000Z,1009.045608
2022-12-03T01:32:32.000Z,1009.113336
2022-12-03T01:33:07.000Z,1008.944016
2022-12-03T01:33:37.000Z,1008.944016
2022-12-03T01:34:02.000Z,1008.944016
2022-12-03T01:34:27.000Z,1008.944016
2022-12-03T01:34:57.000Z,1008.944016
2022-12-03T01:35:32.000Z,1008.842424
2022-12-03T01:36:02.000Z,1008.842424
2022-12-03T01:36:33.000Z,1008.944016
2022-12-03T01:37:02.000Z,1008.944016
2022-12-03T01:37:32.000Z,1008.944016
2022-12-03T01:38:02.000Z,1008.944016
2022-12-03T01:38:27.000Z,1008.842424
2022-12-03T01:38:57.000Z,1008.842424
2022-12-03T01:39:32.000Z,1008.944016
2022-12-03T01:40:02.000Z,1008.944016
2022-12-03T01:40:32.000Z,1008.944016
2022-12-03T01:41:07.000Z,1008.63924
2022-12-03T01:41:37.000Z,1008.63924
2022-12-03T01:42:02.000Z,1008.944016
2022-12-03T01:42:27.000Z,1008.944016
2022-12-03T01:42:57.000Z,1008.944016
2022-12-03T01:43:33.000Z,1008.7408320000001
2022-12-03T01:44:02.000Z,1008.7408320000001
2022-12-03T01:44:32.000Z,1008.944016
2022-12-03T01:45:02.000Z,1008.944016
2022-12-03T01:45:32.000Z,1008.842424
2022-12-03T01:46:02.000Z,1008.842424
2022-12-03T01:46:28.000Z,1008.63924
2022-12-03T01:46:55.000Z,1008.63924
2022-12-03T01:47:22.000Z,1008.944016
2022-12-03T01:47:48.000Z,1008.944016
2022-12-03T01:48:12.000Z,1008.7408320000001
2022-12-03T01:48:36.000Z,1008.7408320000001
2022-12-03T01:49:07.000Z,1008.944016
2022-12-03T01:49:37.000Z,1008.944016
2022-12-03T01:50:10.000Z,1008.842424
2022-12-03T01:50:42.000Z,1008.842424
2022-12-03T01:51:04.000Z,1009.045608
2022-12-03T01:51:32.000Z,1009.045608
2022-12-03T01:52:02.000Z,1009.045608
2022-12-03T01:52:32.000Z,1008.842424
2022-12-03T01:52:52.000Z,1008.842424
2022-12-03T01:53:21.000Z,1008.7408320000001
2022-12-03T01:53:52.000Z,1008.7408320000001
2022-12-03T01:54:12.000Z,1008.7408320000001
2022-12-03T01:54:42.000Z,1008.7408320000001
2022-12-03T01:55:04.000Z,1008.842424
2022-12-03T01:55:32.000Z,1008.842424
2022-12-03T01:55:59.000Z,1008.842424
2022-12-03T01:56:15.000Z,1008.944016
2022-12-03T01:56:32.000Z,1008.944016
2022-12-03T01:57:07.000Z,1008.944016
2022-12-03T01:57:37.000Z,1008.944016
2022-12-03T01:58:02.000Z,1009.045608
2022-12-03T01:58:27.000Z,1009.045608
2022-12-03T01:58:57.000Z,1009.045608
2022-12-03T01:59:32.000Z,1008.7408320000001
2022-12-03T02:00:02.000Z,1008.7408320000001
2022-12-03T02:00:32.000Z,1009.045608
2022-12-03T02:00:52.000Z,1009.045608
2022-12-03T02:01:21.000Z,1008.944016
2022-12-03T02:01:52.000Z,1008.944016
2022-12-03T02:02:27.000Z,1008.842424
2022-12-03T02:02:55.000Z,1008.842424
2022-12-03T02:03:22.000Z,1008.7408320000001
2022-12-03T02:03:48.000Z,1008.7408320000001
2022-12-03T02:04:12.000Z,1008.7408320000001
2022-12-03T02:04:35.000Z,1008.7408320000001
2022-12-03T02:05:02.000Z,1008.7408320000001
2022-12-03T02:05:32.000Z,1008.7408320000001
2022-12-03T02:06:02.000Z,1008.7408320000001
2022-12-03T02:06:28.000Z,1008.944016
2022-12-03T02:06:55.000Z,1008.944016
2022-12-03T02:07:22.000Z,1008.7408320000001
2022-12-03T02:07:48.000Z,1008.7408320000001
2022-12-03T02:08:12.000Z,1008.944016
2022-12-03T02:08:35.000Z,1008.944016
2022-12-03T02:09:08.000Z,1008.944016
2022-12-03T02:09:37.000Z,1008.944016
2022-12-03T02:10:12.000Z,1008.944016
2022-12-03T02:10:42.000Z,1008.944016
2022-12-03T02:11:04.000Z,1008.944016
2022-12-03T02:11:32.000Z,1008.944016
2022-12-03T02:12:02.000Z,1008.944016
2022-12-03T02:12:32.000Z,1008.944016
2022-12-03T02:12:52.000Z,1008.944016
2022-12-03T02:13:22.000Z,1008.944016
2022-12-03T02:13:52.000Z,1008.944016
2022-12-03T02:14:12.000Z,1009.113336
2022-12-03T02:14:42.000Z,1009.113336
2022-12-03T02:15:04.000Z,1009.113336
2022-12-03T02:15:42.000Z,1009.113336
2022-12-03T02:16:02.000Z,1009.113336
2022-12-03T02:16:32.000Z,1008.944016
2022-12-03T02:16:52.000Z,1008.944016
2022-12-03T02:17:22.000Z,1008.842424
2022-12-03T02:17:52.000Z,1008.842424
2022-12-03T02:18:27.000Z,1008.944016
2022-12-03T02:18:57.000Z,1008.944016
2022-12-03T02:19:32.000Z,1009.045608
2022-12-03T02:20:02.000Z,1009.045608
2022-12-03T02:20:32.000Z,1009.045608
2022-12-03T02:21:07.000Z,1009.045608
2022-12-03T02:21:37.000Z,1009.045608
2022-12-03T02:22:02.000Z,1009.113336
2022-12-03T02:22:37.000Z,1009.113336
2022-12-03T02:23:07.000Z,1009.045608
2022-12-03T02:23:32.000Z,1009.045608
2022-12-03T02:23:59.000Z,1009.045608
2022-12-03T02:24:23.000Z,1009.045608
2022-12-03T02:24:52.000Z,1009.045608
2022-12-03T02:25:17.000Z,1008.7408320000001
2022-12-03T02:25:40.000Z,1008.7408320000001
2022-12-03T02:26:07.000Z,1008.944016
2022-12-03T02:26:27.000Z,1008.944016
2022-12-03T02:26:57.000Z,1008.944016
2022-12-03T02:27:32.000Z,1008.944016
2022-12-03T02:28:02.000Z,1008.944016
2022-12-03T02:28:32.000Z,1009.045608
2022-12-03T02:29:07.000Z,1008.842424
2022-12-03T02:29:37.000Z,1008.842424
2022-12-03T02:30:02.000Z,1008.842424
2022-12-03T02:30:28.000Z,1008.842424
2022-12-03T02:30:57.000Z,1008.842424
2022-12-03T02:31:32.000Z,1008.842424
2022-12-03T02:32:02.000Z,1008.842424
2022-12-03T02:32:32.000Z,1009.045608
2022-12-03T02:33:02.000Z,1008.842424
2022-12-03T02:33:32.000Z,1008.842424
2022-12-03T02:33:52.000Z,1008.842424
2022-12-03T02:34:27.000Z,1009.045608
2022-12-03T02:34:57.000Z,1009.045608
2022-12-03T02:35:32.000Z,1008.842424
2022-12-03T02:36:02.000Z,1008.842424
2022-12-03T02:36:32.000Z,1009.045608
2022-12-03T02:37:07.000Z,1008.842424
2022-12-03T02:37:37.000Z,1008.842424
2022-12-03T02:38:02.000Z,1008.7408320000001
2022-12-03T02:38:27.000Z,1008.7408320000001
2022-12-03T02:38:57.000Z,1008.7408320000001
2022-12-03T02:39:32.000Z,1008.842424
2022-12-03T02:40:02.000Z,1008.842424
2022-12-03T02:40:47.000Z,1008.842424
2022-12-03T02:41:17.000Z,1008.944016
2022-12-03T02:41:39.000Z,1008.944016
2022-12-03T02:42:07.000Z,1008.7408320000001
2022-12-03T02:42:29.000Z,1008.7408320000001
2022-12-03T02:42:57.000Z,1008.7408320000001
2022-12-03T02:43:32.000Z,1008.63924
2022-12-03T02:44:12.000Z,1008.7408320000001
2022-12-03T02:44:34.000Z,1008.7408320000001
2022-12-03T02:45:02.000Z,1008.7408320000001
2022-12-03T02:45:37.000Z,1008.7408320000001
2022-12-03T02:46:02.000Z,1008.7408320000001
2022-12-03T02:46:27.000Z,1008.7408320000001
2022-12-03T02:46:57.000Z,1008.7408320000001
2022-12-03T02:47:32.000Z,1008.63924
2022-12-03T02:48:02.000Z,1008.63924
2022-12-03T02:48:32.000Z,1008.7408320000001
2022-12-03T02:49:07.000Z,1008.7408320000001
2022-12-03T02:49:37.000Z,1008.7408320000001
2022-12-03T02:50:10.000Z,1008.7408320000001
2022-12-03T02:50:42.000Z,1008.7408320000001
2022-12-03T02:51:04.000Z,1008.7408320000001
2022-12-03T02:51:32.000Z,1008.7408320000001
2022-12-03T02:52:12.000Z,1008.842424
2022-12-03T02:52:34.000Z,1008.842424
2022-12-03T02:53:02.000Z,1008.842424
2022-12-03T02:53:32.000Z,1008.842424
2022-12-03T02:54:02.000Z,1008.842424
2022-12-03T02:54:27.000Z,1008.842424
2022-12-03T02:54:57.000Z,1008.842424
2022-12-03T02:55:32.000Z,1008.537648
2022-12-03T02:56:02.000Z,1008.537648
2022-12-03T02:56:32.000Z,1008.63924
2022-12-03T02:57:07.000Z,1008.63924
2022-12-03T02:57:37.000Z,1008.63924
2022-12-03T02:58:02.000Z,1008.7408320000001
2022-12-03T02:58:27.000Z,1008.7408320000001
2022-12-03T02:58:57.000Z,1008.7408320000001
2022-12-03T02:59:32.000Z,1008.842424
2022-12-03T03:00:02.000Z,1008.842424
2022-12-03T03:00:32.000Z,1008.842424
2022-12-03T03:01:02.000Z,1008.842424
2022-12-03T03:01:32.000Z,1008.842424
2022-12-03T03:02:02.000Z,1008.842424
2022-12-03T03:02:28.000Z,1008.7408320000001
2022-12-03T03:02:55.000Z,1008.7408320000001
2022-12-03T03:03:12.000Z,1008.7408320000001
2022-12-03T03:03:47.000Z,1008.7408320000001
2022-12-03T03:04:03.000Z,1008.842424
2022-12-03T03:04:33.000Z,1008.842424
2022-12-03T03:05:07.000Z,1008.63924
2022-12-03T03:05:37.000Z,1008.63924
2022-12-03T03:06:02.000Z,1008.7408320000001
2022-12-03T03:06:27.000Z,1008.7408320000001
2022-12-03T03:06:57.000Z,1008.7408320000001
2022-12-03T03:07:32.000Z,1008.63924
2022-12-03T03:08:02.000Z,1008.63924
2022-12-03T03:08:32.000Z,1008.842424
2022-12-03T03:08:52.000Z,1008.842424
2022-12-03T03:09:22.000Z,1008.7408320000001
2022-12-03T03:09:57.000Z,1008.7408320000001
2022-12-03T03:10:27.000Z,1008.7408320000001
2022-12-03T03:10:57.000Z,1008.7408320000001
2022-12-03T03:11:32.000Z,1008.944016
2022-12-03T03:12:02.000Z,1008.944016
2022-12-03T03:12:32.000Z,1008.537648
2022-12-03T03:12:52.000Z,1008.537648
2022-12-03T03:13:21.000Z,1008.842424
2022-12-03T03:13:52.000Z,1008.842424
2022-12-03T03:14:27.000Z,1008.842424
2022-12-03T03:14:57.000Z,1008.842424
2022-12-03T03:15:32.000Z,1008.7408320000001
2022-12-03T03:16:02.000Z,1008.7408320000001
2022-12-03T03:16:32.000Z,1008.63924
2022-12-03T03:16:52.000Z,1008.63924
2022-12-03T03:17:17.000Z,1008.63924
2022-12-03T03:17:39.000Z,1008.63924
2022-12-03T03:18:07.000Z,1008.537648
2022-12-03T03:18:29.000Z,1008.537648
2022-12-03T03:18:57.000Z,1008.537648
2022-12-03T03:19:32.000Z,1008.537648
2022-12-03T03:20:12.000Z,1008.63924
2022-12-03T03:20:35.000Z,1008.63924
2022-12-03T03:21:02.000Z,1008.7408320000001
2022-12-03T03:21:32.000Z,1008.7408320000001
2022-12-03T03:22:02.000Z,1008.7408320000001
2022-12-03T03:22:28.000Z,1008.63924
2022-12-03T03:22:55.000Z,1008.63924
2022-12-03T03:23:22.000Z,1008.537648
2022-12-03T03:23:48.000Z,1008.537648
2022-12-03T03:24:17.000Z,1008.537648
2022-12-03T03:24:52.000Z,1008.537648
2022-12-03T03:25:22.000Z,1008.537648
2022-12-03T03:25:52.000Z,1008.537648
2022-12-03T03:26:27.000Z,1008.63924
2022-12-03T03:26:57.000Z,1008.63924
2022-12-03T03:27:32.000Z,1008.63924
2022-12-03T03:28:02.000Z,1008.63924
2022-12-03T03:28:32.000Z,1008.63924
2022-12-03T03:29:07.000Z,1008.537648
2022-12-03T03:29:37.000Z,1008.537648
2022-12-03T03:30:12.000Z,1008.63924
2022-12-03T03:30:42.000Z,1008.63924
2022-12-03T03:31:04.000Z,1008.537648
2022-12-03T03:31:32.000Z,1008.537648
2022-12-03T03:32:02.000Z,1008.537648
2022-12-03T03:32:32.000Z,1008.63924
2022-12-03T03:33:17.000Z,1008.436056
2022-12-03T03:33:37.000Z,1008.436056
2022-12-03T03:34:03.000Z,1008.7408320000001
2022-12-03T03:34:27.000Z,1008.7408320000001
2022-12-03T03:34:57.000Z,1008.7408320000001
2022-12-03T03:35:32.000Z,1008.436056
2022-12-03T03:36:02.000Z,1008.436056
2022-12-03T03:36:32.000Z,1008.63924
2022-12-03T03:37:07.000Z,1008.7408320000001
2022-12-03T03:37:37.000Z,1008.7408320000001
2022-12-03T03:38:10.000Z,1008.537648
2022-12-03T03:38:42.000Z,1008.537648
2022-12-03T03:39:04.000Z,1008.63924
2022-12-03T03:39:32.000Z,1008.63924
2022-12-03T03:40:02.000Z,1008.63924
2022-12-03T03:40:32.000Z,1008.537648
2022-12-03T03:41:07.000Z,1008.7408320000001
2022-12-03T03:41:37.000Z,1008.7408320000001
2022-12-03T03:42:02.000Z,1008.63924
2022-12-03T03:42:27.000Z,1008.63924
2022-12-03T03:42:57.000Z,1008.63924
2022-12-03T03:43:32.000Z,1008.63924
2022-12-03T03:44:02.000Z,1008.63924
2022-12-03T03:44:32.000Z,1008.63924
2022-12-03T03:45:07.000Z,1008.63924
2022-12-03T03:45:37.000Z,1008.63924
2022-12-03T03:46:02.000Z,1008.63924
2022-12-03T03:46:27.000Z,1008.63924
2022-12-03T03:46:57.000Z,1008.63924
2022-12-03T03:47:32.000Z,1008.63924
2022-12-03T03:48:02.000Z,1008.63924
2022-12-03T03:48:32.000Z,1008.63924
2022-12-03T03:49:07.000Z,1008.63924
2022-12-03T03:49:35.000Z,1008.63924
2022-12-03T03:49:52.000Z,1008.63924
2022-12-03T03:50:10.000Z,1008.436056
2022-12-03T03:50:42.000Z,1008.436056
2022-12-03T03:51:04.000Z,1008.63924
2022-12-03T03:51:32.000Z,1008.63924
2022-12-03T03:52:02.000Z,1008.63924
2022-12-03T03:52:32.000Z,1008.63924
2022-12-03T03:53:07.000Z,1008.63924
2022-12-03T03:53:37.000Z,1008.63924
2022-12-03T03:54:12.000Z,1008.63924
2022-12-03T03:54:39.000Z,1008.63924
2022-12-03T03:54:57.000Z,1008.63924
2022-12-03T03:55:32.000Z,1008.537648
2022-12-03T03:56:03.000Z,1008.537648
2022-12-03T03:56:32.000Z,1008.63924
2022-12-03T03:57:07.000Z,1008.537648
2022-12-03T03:57:37.000Z,1008.537648
2022-12-03T03:58:02.000Z,1008.537648
2022-12-03T03:58:27.000Z,1008.537648
2022-12-03T03:58:57.000Z,1008.537648
2022-12-03T03:59:32.000Z,1008.436056
2022-12-03T04:00:02.000Z,1008.436056
2022-12-03T04:00:32.000Z,1008.537648
2022-12-03T04:01:07.000Z,1008.537648
2022-12-03T04:01:39.000Z,1008.537648
2022-12-03T04:02:04.000Z,1008.537648
2022-12-03T04:02:27.000Z,1008.537648
2022-12-03T04:03:00.000Z,1008.537648
2022-12-03T04:03:32.000Z,1008.63924
2022-12-03T04:04:02.000Z,1008.63924
2022-12-03T04:04:32.000Z,1008.63924
2022-12-03T04:05:08.000Z,1008.7408320000001
2022-12-03T04:05:37.000Z,1008.7408320000001
2022-12-03T04:06:02.000Z,1008.63924
2022-12-03T04:06:23.000Z,1008.63924
2022-12-03T04:06:42.000Z,1008.63924
2022-12-03T04:07:04.000Z,1008.537648
2022-12-03T04:07:32.000Z,1008.537648
2022-12-03T04:08:02.000Z,1008.537648
2022-12-03T04:08:32.000Z,1008.63924
2022-12-03T04:09:07.000Z,1008.436056
2022-12-03T04:09:37.000Z,1008.436056
2022-12-03T04:10:02.000Z,1008.63924
2022-12-03T04:10:27.000Z,1008.63924
2022-12-03T04:10:57.000Z,1008.63924
2022-12-03T04:11:32.000Z,1008.842424
2022-12-03T04:12:02.000Z,1008.842424
2022-12-03T04:12:32.000Z,1008.7408320000001
2022-12-03T04:13:07.000Z,1008.63924
2022-12-03T04:13:37.000Z,1008.63924
2022-12-03T04:14:10.000Z,1008.63924
2022-12-03T04:14:42.000Z,1008.63924
2022-12-03T04:15:04.000Z,1008.537648
2022-12-03T04:15:32.000Z,1008.537648
2022-12-03T04:16:02.000Z,1008.537648
2022-12-03T04:16:32.000Z,1008.537648
2022-12-03T04:17:07.000Z,1008.436056
2022-12-03T04:17:37.000Z,1008.436056
2022-12-03T04:18:12.000Z,1008.436056
2022-12-03T04:18:42.000Z,1008.436056
2022-12-03T04:19:04.000Z,1008.436056
2022-12-03T04:19:32.000Z,1008.436056
2022-12-03T04:20:02.000Z,1008.436056
2022-12-03T04:20:32.000Z,1008.7408320000001
2022-12-03T04:21:07.000Z,1008.63924
2022-12-03T04:21:37.000Z,1008.63924
2022-12-03T04:22:02.000Z,1008.537648
2022-12-03T04:22:37.000Z,1008.537648
2022-12-03T04:22:57.000Z,1008.537648
2022-12-03T04:23:32.000Z,1008.436056
2022-12-03T04:24:02.000Z,1008.436056
2022-12-03T04:24:32.000Z,1008.63924
2022-12-03T04:25:07.000Z,1008.334464
2022-12-03T04:25:37.000Z,1008.334464
2022-12-03T04:26:02.000Z,1008.537648
2022-12-03T04:26:27.000Z,1008.537648
2022-12-03T04:26:57.000Z,1008.537648
2022-12-03T04:27:32.000Z,1008.63924
2022-12-03T04:28:02.000Z,1008.63924
2022-12-03T04:28:32.000Z,1008.537648
2022-12-03T04:28:52.000Z,1008.537648
2022-12-03T04:29:22.000Z,1008.63924
2022-12-03T04:29:57.000Z,1008.63924
2022-12-03T04:30:27.000Z,1008.436056
2022-12-03T04:30:57.000Z,1008.436056
2022-12-03T04:31:32.000Z,1008.537648
2022-12-03T04:32:02.000Z,1008.537648
2022-12-03T04:32:32.000Z,1008.436056
2022-12-03T04:32:52.000Z,1008.436056
2022-12-03T04:33:22.000Z,1008.537648
2022-12-03T04:33:52.000Z,1008.537648
2022-12-03T04:34:31.000Z,1008.63924
2022-12-03T04:34:57.000Z,1008.63924
2022-12-03T04:35:32.000Z,1008.537648
2022-12-03T04:36:02.000Z,1008.537648
2022-12-03T04:36:33.000Z,1008.436056
2022-12-03T04:37:02.000Z,1008.436056
2022-12-03T04:37:22.000Z,1008.436056
2022-12-03T04:37:52.000Z,1008.436056
2022-12-03T04:38:27.000Z,1008.334464
2022-12-03T04:38:57.000Z,1008.334464
2022-12-03T04:39:32.000Z,1008.334464
2022-12-03T04:40:02.000Z,1008.334464
2022-12-03T04:40:32.000Z,1008.537648
2022-12-03T04:41:07.000Z,1008.334464
2022-12-03T04:41:37.000Z,1008.334464
2022-12-03T04:42:02.000Z,1008.334464
2022-12-03T04:42:27.000Z,1008.334464
2022-12-03T04:42:57.000Z,1008.334464
2022-12-03T04:43:32.000Z,1008.334464
2022-12-03T04:44:02.000Z,1008.334464
2022-12-03T04:44:42.000Z,1008.2328719999999
2022-12-03T04:45:08.000Z,1008.334464
2022-12-03T04:45:39.000Z,1008.334464
2022-12-03T04:46:07.000Z,1008.436056
2022-12-03T04:46:30.000Z,1008.436056
2022-12-03T04:46:57.000Z,1008.436056
2022-12-03T04:47:32.000Z,1008.334464
2022-12-03T04:48:02.000Z,1008.334464
2022-12-03T04:48:32.000Z,1008.436056
2022-12-03T04:49:07.000Z,1008.436056
2022-12-03T04:49:37.000Z,1008.436056
2022-12-03T04:50:10.000Z,1008.2328719999999
2022-12-03T04:50:42.000Z,1008.2328719999999
2022-12-03T04:51:03.000Z,1008.436056
2022-12-03T04:51:32.000Z,1008.436056
2022-12-03T04:52:02.000Z,1008.436056
2022-12-03T04:52:32.000Z,1008.334464
2022-12-03T04:52:52.000Z,1008.334464
2022-12-03T04:53:21.000Z,1008.334464
2022-12-03T04:53:57.000Z,1008.334464
2022-12-03T04:54:37.000Z,1008.334464
2022-12-03T04:55:07.000Z,1008.1312800000001
2022-12-03T04:55:32.000Z,1008.1312800000001
2022-12-03T04:56:02.000Z,1008.1312800000001
2022-12-03T04:56:32.000Z,1008.436056
2022-12-03T04:56:52.000Z,1008.436056
2022-12-03T04:57:21.000Z,1008.436056
2022-12-03T04:57:52.000Z,1008.436056
2022-12-03T04:58:27.000Z,1008.1312800000001
2022-12-03T04:58:57.000Z,1008.1312800000001
2022-12-03T04:59:32.000Z,1008.1312800000001
2022-12-03T05:00:02.000Z,1008.1312800000001
2022-12-03T05:00:32.000Z,1008.436056
2022-12-03T05:01:07.000Z,1008.1312800000001
2022-12-03T05:01:37.000Z,1008.1312800000001
2022-12-03T05:02:02.000Z,1008.2328719999999
2022-12-03T05:02:37.000Z,1008.2328719999999
2022-12-03T05:02:57.000Z,1008.2328719999999
2022-12-03T05:03:36.000Z,1008.334464
2022-12-03T05:04:02.000Z,1008.334464
2022-12-03T05:04:32.000Z,1008.334464
2022-12-03T05:04:52.000Z,1008.334464
2022-12-03T05:05:21.000Z,1008.2328719999999
2022-12-03T05:05:52.000Z,1008.2328719999999
2022-12-03T05:06:12.000Z,1008.1312800000001
2022-12-03T05:06:42.000Z,1008.1312800000001
2022-12-03T05:07:04.000Z,1008.1312800000001